sensor_id;sensor_type;location;lat;lon;timestamp;P1;durP1;ratioP1;P2;durP2;ratioP2
48987;SDS011;34799;51.440;-2.534;2023-06-10T00:00:10;19.65;;;6.55;;
48987;SDS011;34799;51.440;-2.534;2023-06-10T00:02:42;16.25;;;6.30;;
48987;SDS011;34799;51.440;-2.534;2023-06-10T00:05:10;17.05;;;6.57;;
48987;SDS011;34799;51.440;-2.534;2023-06-10T00:07:39;18.05;;;7.10;;
48987;SDS011;34799;51.440;-2.534;2023-06-10T00:10:08;16.33;;;6.78;;
48987;SDS011;34799;51.440;-2.534;2023-06-10T00:12:38;15.32;;;6.97;;
48987;SDS011;34799;51.440;-2.534;2023-06-10T00:15:05;13.02;;;6.35;;
48987;SDS011;34799;51.440;-2.534;2023-06-10T00:17:34;15.35;;;6.90;;
48987;SDS011;34799;51.440;-2.534;2023-06-10T00:20:07;18.17;;;7.22;;
48987;SDS011;34799;51.440;-2.534;2023-06-10T00:22:38;16.23;;;7.45;;
48987;SDS011;34799;51.440;-2.534;2023-06-10T00:25:10;15.88;;;6.70;;
48987;SDS011;34799;51.440;-2.534;2023-06-10T00:27:37;17.70;;;6.72;;
48987;SDS011;34799;51.440;-2.534;2023-06-10T00:30:05;19.00;;;6.60;;
48987;SDS011;34799;51.440;-2.534;2023-06-10T00:32:37;13.15;;;6.03;;
48987;SDS011;34799;51.440;-2.534;2023-06-10T00:35:06;16.50;;;7.25;;
48987;SDS011;34799;51.440;-2.534;2023-06-10T00:41:41;18.00;;;6.38;;
48987;SDS011;34799;51.440;-2.534;2023-06-10T00:44:10;21.40;;;7.15;;
48987;SDS011;34799;51.440;-2.534;2023-06-10T00:46:38;20.10;;;6.50;;
48987;SDS011;34799;51.440;-2.534;2023-06-10T00:49:05;18.33;;;6.15;;
48987;SDS011;34799;51.440;-2.534;2023-06-10T00:51:37;19.00;;;6.05;;
48987;SDS011;34799;51.440;-2.534;2023-06-10T00:57:11;18.00;;;6.47;;
48987;SDS011;34799;51.440;-2.534;2023-06-10T00:59:45;18.88;;;6.50;;
48987;SDS011;34799;51.440;-2.534;2023-06-10T01:02:18;16.38;;;6.55;;
48987;SDS011;34799;51.440;-2.534;2023-06-10T01:04:46;16.92;;;6.18;;
48987;SDS011;34799;51.440;-2.534;2023-06-10T01:15:30;21.48;;;7.15;;
48987;SDS011;34799;51.440;-2.534;2023-06-10T01:18:06;18.42;;;5.97;;
48987;SDS011;34799;51.440;-2.534;2023-06-10T01:20:43;24.30;;;6.90;;
48987;SDS011;34799;51.440;-2.534;2023-06-10T01:23:15;16.98;;;6.80;;
48987;SDS011;34799;51.440;-2.534;2023-06-10T01:25:49;14.00;;;6.00;;
48987;SDS011;34799;51.440;-2.534;2023-06-10T01:28:44;15.55;;;6.82;;
48987;SDS011;34799;51.440;-2.534;2023-06-10T01:31:37;13.43;;;6.07;;
48987;SDS011;34799;51.440;-2.534;2023-06-10T01:34:17;19.73;;;6.55;;
48987;SDS011;34799;51.440;-2.534;2023-06-10T01:36:46;15.48;;;6.63;;
48987;SDS011;34799;51.440;-2.534;2023-06-10T01:42:17;20.52;;;7.65;;
48987;SDS011;34799;51.440;-2.534;2023-06-10T01:44:50;20.80;;;8.10;;
48987;SDS011;34799;51.440;-2.534;2023-06-10T01:47:18;19.50;;;8.13;;
48987;SDS011;34799;51.440;-2.534;2023-06-10T01:49:47;16.02;;;6.93;;
48987;SDS011;34799;51.440;-2.534;2023-06-10T01:52:26;16.65;;;7.30;;
48987;SDS011;34799;51.440;-2.534;2023-06-10T01:54:55;20.50;;;7.95;;
48987;SDS011;34799;51.440;-2.534;2023-06-10T01:57:23;17.17;;;7.28;;
48987;SDS011;34799;51.440;-2.534;2023-06-10T01:59:50;22.20;;;7.20;;
48987;SDS011;34799;51.440;-2.534;2023-06-10T02:02:18;18.23;;;7.63;;
48987;SDS011;34799;51.440;-2.534;2023-06-10T02:04:46;14.27;;;7.20;;
48987;SDS011;34799;51.440;-2.534;2023-06-10T02:07:13;18.30;;;7.55;;
48987;SDS011;34799;51.440;-2.534;2023-06-10T02:09:45;20.40;;;7.88;;
48987;SDS011;34799;51.440;-2.534;2023-06-10T02:12:13;15.90;;;7.45;;
48987;SDS011;34799;51.440;-2.534;2023-06-10T02:14:42;15.10;;;7.00;;
48987;SDS011;34799;51.440;-2.534;2023-06-10T02:17:10;18.10;;;8.65;;
48987;SDS011;34799;51.440;-2.534;2023-06-10T02:19:43;20.35;;;8.73;;
48987;SDS011;34799;51.440;-2.534;2023-06-10T02:22:23;19.15;;;8.57;;
48987;SDS011;34799;51.440;-2.534;2023-06-10T02:24:54;18.10;;;9.25;;
48987;SDS011;34799;51.440;-2.534;2023-06-10T02:27:25;20.88;;;8.98;;
48987;SDS011;34799;51.440;-2.534;2023-06-10T02:29:58;21.20;;;9.23;;
48987;SDS011;34799;51.440;-2.534;2023-06-10T02:32:29;20.50;;;9.57;;
48987;SDS011;34799;51.440;-2.534;2023-06-10T02:34:59;19.23;;;9.65;;
48987;SDS011;34799;51.440;-2.534;2023-06-10T02:37:28;21.90;;;10.77;;
48987;SDS011;34799;51.440;-2.534;2023-06-10T02:39:56;23.40;;;10.88;;
48987;SDS011;34799;51.440;-2.534;2023-06-10T02:42:26;22.65;;;10.52;;
48987;SDS011;34799;51.440;-2.534;2023-06-10T02:44:56;27.88;;;11.32;;
48987;SDS011;34799;51.440;-2.534;2023-06-10T02:47:33;27.75;;;11.25;;
48987;SDS011;34799;51.440;-2.534;2023-06-10T02:50:01;27.80;;;12.15;;
48987;SDS011;34799;51.440;-2.534;2023-06-10T02:52:40;25.63;;;11.07;;
48987;SDS011;34799;51.440;-2.534;2023-06-10T02:55:13;24.98;;;11.07;;
48987;SDS011;34799;51.440;-2.534;2023-06-10T02:57:48;26.08;;;10.35;;
48987;SDS011;34799;51.440;-2.534;2023-06-10T03:00:23;25.38;;;11.15;;
48987;SDS011;34799;51.440;-2.534;2023-06-10T03:02:53;21.10;;;10.52;;
48987;SDS011;34799;51.440;-2.534;2023-06-10T03:05:31;24.10;;;11.63;;
48987;SDS011;34799;51.440;-2.534;2023-06-10T03:08:03;22.33;;;11.55;;
48987;SDS011;34799;51.440;-2.534;2023-06-10T03:10:34;26.02;;;12.32;;
48987;SDS011;34799;51.440;-2.534;2023-06-10T03:13:06;23.33;;;11.52;;
48987;SDS011;34799;51.440;-2.534;2023-06-10T03:15:33;23.70;;;11.30;;
48987;SDS011;34799;51.440;-2.534;2023-06-10T03:18:08;24.95;;;12.38;;
48987;SDS011;34799;51.440;-2.534;2023-06-10T03:20:37;25.20;;;11.18;;
48987;SDS011;34799;51.440;-2.534;2023-06-10T03:23:09;27.48;;;11.90;;
48987;SDS011;34799;51.440;-2.534;2023-06-10T03:25:37;29.77;;;12.70;;
48987;SDS011;34799;51.440;-2.534;2023-06-10T03:28:05;25.95;;;12.23;;
48987;SDS011;34799;51.440;-2.534;2023-06-10T03:30:35;30.98;;;12.77;;
48987;SDS011;34799;51.440;-2.534;2023-06-10T03:33:13;28.92;;;12.88;;
48987;SDS011;34799;51.440;-2.534;2023-06-10T03:35:42;25.65;;;12.20;;
48987;SDS011;34799;51.440;-2.534;2023-06-10T03:38:12;24.48;;;12.50;;
48987;SDS011;34799;51.440;-2.534;2023-06-10T03:40:42;27.13;;;13.00;;
48987;SDS011;34799;51.440;-2.534;2023-06-10T03:43:10;31.05;;;13.55;;
48987;SDS011;34799;51.440;-2.534;2023-06-10T03:45:38;31.10;;;14.27;;
48987;SDS011;34799;51.440;-2.534;2023-06-10T03:48:09;28.65;;;12.98;;
48987;SDS011;34799;51.440;-2.534;2023-06-10T03:50:48;27.25;;;12.35;;
48987;SDS011;34799;51.440;-2.534;2023-06-10T03:53:18;31.60;;;14.32;;
48987;SDS011;34799;51.440;-2.534;2023-06-10T03:55:46;27.17;;;13.35;;
48987;SDS011;34799;51.440;-2.534;2023-06-10T03:58:19;25.65;;;12.80;;
48987;SDS011;34799;51.440;-2.534;2023-06-10T04:00:47;29.63;;;13.32;;
48987;SDS011;34799;51.440;-2.534;2023-06-10T04:03:16;29.90;;;13.93;;
48987;SDS011;34799;51.440;-2.534;2023-06-10T04:05:49;27.95;;;12.45;;
48987;SDS011;34799;51.440;-2.534;2023-06-10T04:08:17;28.13;;;13.85;;
48987;SDS011;34799;51.440;-2.534;2023-06-10T04:10:51;27.33;;;12.98;;
48987;SDS011;34799;51.440;-2.534;2023-06-10T04:13:20;30.92;;;12.85;;
48987;SDS011;34799;51.440;-2.534;2023-06-10T04:15:53;29.80;;;13.40;;
48987;SDS011;34799;51.440;-2.534;2023-06-10T04:18:24;29.23;;;14.57;;
48987;SDS011;34799;51.440;-2.534;2023-06-10T04:20:55;27.58;;;12.65;;
48987;SDS011;34799;51.440;-2.534;2023-06-10T04:23:24;25.08;;;13.13;;
48987;SDS011;34799;51.440;-2.534;2023-06-10T04:25:55;31.65;;;13.35;;
48987;SDS011;34799;51.440;-2.534;2023-06-10T04:28:24;34.55;;;13.15;;
48987;SDS011;34799;51.440;-2.534;2023-06-10T04:30:53;34.53;;;13.38;;
48987;SDS011;34799;51.440;-2.534;2023-06-10T04:33:23;27.02;;;12.95;;
48987;SDS011;34799;51.440;-2.534;2023-06-10T04:35:54;27.50;;;13.60;;
48987;SDS011;34799;51.440;-2.534;2023-06-10T04:38:27;31.38;;;12.60;;
48987;SDS011;34799;51.440;-2.534;2023-06-10T04:40:57;31.58;;;14.23;;
48987;SDS011;34799;51.440;-2.534;2023-06-10T04:43:27;31.70;;;13.90;;
48987;SDS011;34799;51.440;-2.534;2023-06-10T04:45:56;30.85;;;12.90;;
48987;SDS011;34799;51.440;-2.534;2023-06-10T04:48:26;33.40;;;13.32;;
48987;SDS011;34799;51.440;-2.534;2023-06-10T04:50:54;25.77;;;13.40;;
48987;SDS011;34799;51.440;-2.534;2023-06-10T04:53:23;30.90;;;13.32;;
48987;SDS011;34799;51.440;-2.534;2023-06-10T04:55:50;25.13;;;11.80;;
48987;SDS011;34799;51.440;-2.534;2023-06-10T04:58:21;33.88;;;12.95;;
48987;SDS011;34799;51.440;-2.534;2023-06-10T05:00:50;29.63;;;11.88;;
48987;SDS011;34799;51.440;-2.534;2023-06-10T05:03:21;29.95;;;13.57;;
48987;SDS011;34799;51.440;-2.534;2023-06-10T05:05:48;31.15;;;13.00;;
48987;SDS011;34799;51.440;-2.534;2023-06-10T05:08:17;31.42;;;12.93;;
48987;SDS011;34799;51.440;-2.534;2023-06-10T05:10:50;27.73;;;12.57;;
48987;SDS011;34799;51.440;-2.534;2023-06-10T05:13:23;31.95;;;14.02;;
48987;SDS011;34799;51.440;-2.534;2023-06-10T05:15:51;27.10;;;11.80;;
48987;SDS011;34799;51.440;-2.534;2023-06-10T05:18:23;25.20;;;11.95;;
48987;SDS011;34799;51.440;-2.534;2023-06-10T05:20:54;24.88;;;11.68;;
48987;SDS011;34799;51.440;-2.534;2023-06-10T05:23:22;28.67;;;11.85;;
48987;SDS011;34799;51.440;-2.534;2023-06-10T05:25:53;24.77;;;11.98;;
48987;SDS011;34799;51.440;-2.534;2023-06-10T05:28:23;27.10;;;11.75;;
48987;SDS011;34799;51.440;-2.534;2023-06-10T05:30:50;27.20;;;12.18;;
48987;SDS011;34799;51.440;-2.534;2023-06-10T05:33:18;28.48;;;10.93;;
48987;SDS011;34799;51.440;-2.534;2023-06-10T05:35:46;23.52;;;11.45;;
48987;SDS011;34799;51.440;-2.534;2023-06-10T05:38:16;24.63;;;11.57;;
48987;SDS011;34799;51.440;-2.534;2023-06-10T05:40:45;26.92;;;11.27;;
48987;SDS011;34799;51.440;-2.534;2023-06-10T05:43:13;28.67;;;11.35;;
48987;SDS011;34799;51.440;-2.534;2023-06-10T05:45:44;23.55;;;10.93;;
48987;SDS011;34799;51.440;-2.534;2023-06-10T05:48:14;25.70;;;11.35;;
48987;SDS011;34799;51.440;-2.534;2023-06-10T05:50:44;27.13;;;10.85;;
48987;SDS011;34799;51.440;-2.534;2023-06-10T05:53:18;23.90;;;10.15;;
48987;SDS011;34799;51.440;-2.534;2023-06-10T05:55:46;20.70;;;10.65;;
48987;SDS011;34799;51.440;-2.534;2023-06-10T05:58:14;23.73;;;10.55;;
48987;SDS011;34799;51.440;-2.534;2023-06-10T06:00:48;23.85;;;11.45;;
48987;SDS011;34799;51.440;-2.534;2023-06-10T06:03:15;30.23;;;11.95;;
48987;SDS011;34799;51.440;-2.534;2023-06-10T06:05:48;24.60;;;10.35;;
48987;SDS011;34799;51.440;-2.534;2023-06-10T06:08:16;21.20;;;10.43;;
48987;SDS011;34799;51.440;-2.534;2023-06-10T06:10:45;26.73;;;11.07;;
48987;SDS011;34799;51.440;-2.534;2023-06-10T06:13:14;26.08;;;11.35;;
48987;SDS011;34799;51.440;-2.534;2023-06-10T06:15:47;20.50;;;9.60;;
48987;SDS011;34799;51.440;-2.534;2023-06-10T06:18:14;24.58;;;10.48;;
48987;SDS011;34799;51.440;-2.534;2023-06-10T06:20:52;22.83;;;10.00;;
48987;SDS011;34799;51.440;-2.534;2023-06-10T06:23:19;21.13;;;9.52;;
48987;SDS011;34799;51.440;-2.534;2023-06-10T06:25:48;25.38;;;9.88;;
48987;SDS011;34799;51.440;-2.534;2023-06-10T06:28:19;19.65;;;8.98;;
48987;SDS011;34799;51.440;-2.534;2023-06-10T06:30:48;20.17;;;9.32;;
48987;SDS011;34799;51.440;-2.534;2023-06-10T06:33:15;19.25;;;9.60;;
48987;SDS011;34799;51.440;-2.534;2023-06-10T06:35:50;24.85;;;9.82;;
48987;SDS011;34799;51.440;-2.534;2023-06-10T06:38:18;20.55;;;9.48;;
48987;SDS011;34799;51.440;-2.534;2023-06-10T06:40:46;22.83;;;9.05;;
48987;SDS011;34799;51.440;-2.534;2023-06-10T06:43:16;18.98;;;8.65;;
48987;SDS011;34799;51.440;-2.534;2023-06-10T06:45:57;24.58;;;9.13;;
48987;SDS011;34799;51.440;-2.534;2023-06-10T06:48:26;27.13;;;9.85;;
48987;SDS011;34799;51.440;-2.534;2023-06-10T06:50:55;25.17;;;10.65;;
48987;SDS011;34799;51.440;-2.534;2023-06-10T06:53:24;29.50;;;10.40;;
48987;SDS011;34799;51.440;-2.534;2023-06-10T06:55:53;25.58;;;10.00;;
48987;SDS011;34799;51.440;-2.534;2023-06-10T06:58:20;29.27;;;10.05;;
48987;SDS011;34799;51.440;-2.534;2023-06-10T07:00:50;22.45;;;9.20;;
48987;SDS011;34799;51.440;-2.534;2023-06-10T07:03:20;21.58;;;9.43;;
48987;SDS011;34799;51.440;-2.534;2023-06-10T07:05:50;23.45;;;9.90;;
48987;SDS011;34799;51.440;-2.534;2023-06-10T07:08:20;16.33;;;9.02;;
48987;SDS011;34799;51.440;-2.534;2023-06-10T07:10:48;20.98;;;9.38;;
48987;SDS011;34799;51.440;-2.534;2023-06-10T07:13:23;22.83;;;9.65;;
48987;SDS011;34799;51.440;-2.534;2023-06-10T07:15:51;20.80;;;9.73;;
48987;SDS011;34799;51.440;-2.534;2023-06-10T07:18:19;20.30;;;9.00;;
48987;SDS011;34799;51.440;-2.534;2023-06-10T07:20:49;22.20;;;10.20;;
48987;SDS011;34799;51.440;-2.534;2023-06-10T07:23:19;16.70;;;8.45;;
48987;SDS011;34799;51.440;-2.534;2023-06-10T07:25:47;20.60;;;8.98;;
48987;SDS011;34799;51.440;-2.534;2023-06-10T07:28:14;19.17;;;9.65;;
48987;SDS011;34799;51.440;-2.534;2023-06-10T07:30:42;22.70;;;9.38;;
48987;SDS011;34799;51.440;-2.534;2023-06-10T07:33:10;23.70;;;8.95;;
48987;SDS011;34799;51.440;-2.534;2023-06-10T07:35:39;17.75;;;7.93;;
48987;SDS011;34799;51.440;-2.534;2023-06-10T07:38:08;16.17;;;7.95;;
48987;SDS011;34799;51.440;-2.534;2023-06-10T07:40:36;17.50;;;8.48;;
48987;SDS011;34799;51.440;-2.534;2023-06-10T07:43:04;17.65;;;7.85;;
48987;SDS011;34799;51.440;-2.534;2023-06-10T07:45:32;22.30;;;9.23;;
48987;SDS011;34799;51.440;-2.534;2023-06-10T07:48:00;16.65;;;8.30;;
48987;SDS011;34799;51.440;-2.534;2023-06-10T07:50:30;18.70;;;9.45;;
48987;SDS011;34799;51.440;-2.534;2023-06-10T07:52:59;17.92;;;8.45;;
48987;SDS011;34799;51.440;-2.534;2023-06-10T07:55:27;18.92;;;7.80;;
48987;SDS011;34799;51.440;-2.534;2023-06-10T07:57:54;20.88;;;8.48;;
48987;SDS011;34799;51.440;-2.534;2023-06-10T08:00:23;24.75;;;8.05;;
48987;SDS011;34799;51.440;-2.534;2023-06-10T08:02:56;20.17;;;8.63;;
48987;SDS011;34799;51.440;-2.534;2023-06-10T08:05:26;24.05;;;8.70;;
48987;SDS011;34799;51.440;-2.534;2023-06-10T08:11:03;15.32;;;7.38;;
48987;SDS011;34799;51.440;-2.534;2023-06-10T08:13:32;14.98;;;6.30;;
48987;SDS011;34799;51.440;-2.534;2023-06-10T08:16:03;19.15;;;8.32;;
48987;SDS011;34799;51.440;-2.534;2023-06-10T08:18:31;20.42;;;7.20;;
48987;SDS011;34799;51.440;-2.534;2023-06-10T08:20:59;18.67;;;7.22;;
48987;SDS011;34799;51.440;-2.534;2023-06-10T08:23:36;16.67;;;6.82;;
48987;SDS011;34799;51.440;-2.534;2023-06-10T08:26:04;16.10;;;6.22;;
48987;SDS011;34799;51.440;-2.534;2023-06-10T08:28:35;15.45;;;6.80;;
48987;SDS011;34799;51.440;-2.534;2023-06-10T08:31:03;20.75;;;6.45;;
48987;SDS011;34799;51.440;-2.534;2023-06-10T08:33:33;23.33;;;7.35;;
48987;SDS011;34799;51.440;-2.534;2023-06-10T08:36:00;16.27;;;6.50;;
48987;SDS011;34799;51.440;-2.534;2023-06-10T08:38:28;15.73;;;7.05;;
48987;SDS011;34799;51.440;-2.534;2023-06-10T08:41:02;17.23;;;6.75;;
48987;SDS011;34799;51.440;-2.534;2023-06-10T08:43:54;15.95;;;5.90;;
48987;SDS011;34799;51.440;-2.534;2023-06-10T08:47:15;16.90;;;6.97;;
48987;SDS011;34799;51.440;-2.534;2023-06-10T08:49:46;17.70;;;6.35;;
48987;SDS011;34799;51.440;-2.534;2023-06-10T08:52:36;13.57;;;6.60;;
48987;SDS011;34799;51.440;-2.534;2023-06-10T08:55:18;19.05;;;6.95;;
48987;SDS011;34799;51.440;-2.534;2023-06-10T08:58:00;13.07;;;5.72;;
48987;SDS011;34799;51.440;-2.534;2023-06-10T09:00:35;17.55;;;7.53;;
48987;SDS011;34799;51.440;-2.534;2023-06-10T09:03:04;17.00;;;6.13;;
48987;SDS011;34799;51.440;-2.534;2023-06-10T09:05:40;15.23;;;6.18;;
48987;SDS011;34799;51.440;-2.534;2023-06-10T09:08:20;17.40;;;7.00;;
48987;SDS011;34799;51.440;-2.534;2023-06-10T09:10:48;20.08;;;6.40;;
48987;SDS011;34799;51.440;-2.534;2023-06-10T09:13:41;13.90;;;6.28;;
48987;SDS011;34799;51.440;-2.534;2023-06-10T09:16:18;17.50;;;6.13;;
48987;SDS011;34799;51.440;-2.534;2023-06-10T09:18:46;18.10;;;5.50;;
48987;SDS011;34799;51.440;-2.534;2023-06-10T09:21:14;16.65;;;5.75;;
48987;SDS011;34799;51.440;-2.534;2023-06-10T09:23:46;15.57;;;5.45;;
48987;SDS011;34799;51.440;-2.534;2023-06-10T09:26:14;18.25;;;6.00;;
48987;SDS011;34799;51.440;-2.534;2023-06-10T09:28:44;14.32;;;5.55;;
48987;SDS011;34799;51.440;-2.534;2023-06-10T09:31:19;20.25;;;6.50;;
48987;SDS011;34799;51.440;-2.534;2023-06-10T09:33:50;15.05;;;5.45;;
48987;SDS011;34799;51.440;-2.534;2023-06-10T09:36:22;13.57;;;4.97;;
48987;SDS011;34799;51.440;-2.534;2023-06-10T09:38:52;11.70;;;5.45;;
48987;SDS011;34799;51.440;-2.534;2023-06-10T09:41:21;12.85;;;4.70;;
48987;SDS011;34799;51.440;-2.534;2023-06-10T09:43:58;11.48;;;5.45;;
48987;SDS011;34799;51.440;-2.534;2023-06-10T09:46:29;15.48;;;5.35;;
48987;SDS011;34799;51.440;-2.534;2023-06-10T09:49:06;13.25;;;5.53;;
48987;SDS011;34799;51.440;-2.534;2023-06-10T09:51:36;12.65;;;4.95;;
48987;SDS011;34799;51.440;-2.534;2023-06-10T09:54:04;11.15;;;5.10;;
48987;SDS011;34799;51.440;-2.534;2023-06-10T09:56:33;14.43;;;4.22;;
48987;SDS011;34799;51.440;-2.534;2023-06-10T09:59:06;10.98;;;5.25;;
48987;SDS011;34799;51.440;-2.534;2023-06-10T10:01:34;12.60;;;5.25;;
48987;SDS011;34799;51.440;-2.534;2023-06-10T10:04:02;11.15;;;5.40;;
48987;SDS011;34799;51.440;-2.534;2023-06-10T10:06:33;12.75;;;5.25;;
48987;SDS011;34799;51.440;-2.534;2023-06-10T10:09:04;12.10;;;5.75;;
48987;SDS011;34799;51.440;-2.534;2023-06-10T10:12:13;14.23;;;5.38;;
48987;SDS011;34799;51.440;-2.534;2023-06-10T10:14:45;17.70;;;5.50;;
48987;SDS011;34799;51.440;-2.534;2023-06-10T10:17:18;15.32;;;4.97;;
48987;SDS011;34799;51.440;-2.534;2023-06-10T10:20:02;10.25;;;4.68;;
48987;SDS011;34799;51.440;-2.534;2023-06-10T10:22:43;15.30;;;6.20;;
48987;SDS011;34799;51.440;-2.534;2023-06-10T10:25:16;15.20;;;5.97;;
48987;SDS011;34799;51.440;-2.534;2023-06-10T10:28:04;15.38;;;5.53;;
48987;SDS011;34799;51.440;-2.534;2023-06-10T10:30:47;13.35;;;5.57;;
48987;SDS011;34799;51.440;-2.534;2023-06-10T10:33:30;16.48;;;5.75;;
48987;SDS011;34799;51.440;-2.534;2023-06-10T10:36:10;10.93;;;4.65;;
48987;SDS011;34799;51.440;-2.534;2023-06-10T10:38:51;12.35;;;4.68;;
48987;SDS011;34799;51.440;-2.534;2023-06-10T10:41:19;13.45;;;5.22;;
48987;SDS011;34799;51.440;-2.534;2023-06-10T10:43:59;9.90;;;4.50;;
48987;SDS011;34799;51.440;-2.534;2023-06-10T10:46:43;13.32;;;5.18;;
48987;SDS011;34799;51.440;-2.534;2023-06-10T10:49:22;13.57;;;5.47;;
48987;SDS011;34799;51.440;-2.534;2023-06-10T10:52:01;11.23;;;4.80;;
48987;SDS011;34799;51.440;-2.534;2023-06-10T10:54:34;11.30;;;4.82;;
48987;SDS011;34799;51.440;-2.534;2023-06-10T10:57:22;13.10;;;5.00;;
48987;SDS011;34799;51.440;-2.534;2023-06-10T11:02:35;12.25;;;4.97;;
48987;SDS011;34799;51.440;-2.534;2023-06-10T11:05:17;10.98;;;4.57;;
48987;SDS011;34799;51.440;-2.534;2023-06-10T11:07:58;9.52;;;4.57;;
48987;SDS011;34799;51.440;-2.534;2023-06-10T11:10:30;10.90;;;4.80;;
48987;SDS011;34799;51.440;-2.534;2023-06-10T11:13:00;14.15;;;4.88;;
48987;SDS011;34799;51.440;-2.534;2023-06-10T11:15:33;10.65;;;5.00;;
48987;SDS011;34799;51.440;-2.534;2023-06-10T11:23:26;14.60;;;5.80;;
48987;SDS011;34799;51.440;-2.534;2023-06-10T11:29:03;10.25;;;4.75;;
48987;SDS011;34799;51.440;-2.534;2023-06-10T11:31:32;10.20;;;5.03;;
48987;SDS011;34799;51.440;-2.534;2023-06-10T11:34:06;15.07;;;5.60;;
48987;SDS011;34799;51.440;-2.534;2023-06-10T11:36:39;11.35;;;5.00;;
48987;SDS011;34799;51.440;-2.534;2023-06-10T11:39:12;12.60;;;5.57;;
48987;SDS011;34799;51.440;-2.534;2023-06-10T11:41:41;13.30;;;4.63;;
48987;SDS011;34799;51.440;-2.534;2023-06-10T11:44:10;13.65;;;5.20;;
48987;SDS011;34799;51.440;-2.534;2023-06-10T11:46:41;16.15;;;5.28;;
48987;SDS011;34799;51.440;-2.534;2023-06-10T11:49:20;9.82;;;5.07;;
48987;SDS011;34799;51.440;-2.534;2023-06-10T11:51:48;11.55;;;5.05;;
48987;SDS011;34799;51.440;-2.534;2023-06-10T11:54:18;13.48;;;4.93;;
48987;SDS011;34799;51.440;-2.534;2023-06-10T11:56:58;12.52;;;5.18;;
48987;SDS011;34799;51.440;-2.534;2023-06-10T11:59:34;10.60;;;5.03;;
48987;SDS011;34799;51.440;-2.534;2023-06-10T12:02:14;15.02;;;5.18;;
48987;SDS011;34799;51.440;-2.534;2023-06-10T12:04:46;14.02;;;5.25;;
48987;SDS011;34799;51.440;-2.534;2023-06-10T12:07:18;13.65;;;5.40;;
48987;SDS011;34799;51.440;-2.534;2023-06-10T12:09:59;12.13;;;5.28;;
48987;SDS011;34799;51.440;-2.534;2023-06-10T12:12:39;10.38;;;4.75;;
48987;SDS011;34799;51.440;-2.534;2023-06-10T12:15:10;16.55;;;5.15;;
48987;SDS011;34799;51.440;-2.534;2023-06-10T12:17:57;11.43;;;6.13;;
48987;SDS011;34799;51.440;-2.534;2023-06-10T12:20:28;10.20;;;4.63;;
48987;SDS011;34799;51.440;-2.534;2023-06-10T12:23:10;11.20;;;4.82;;
48987;SDS011;34799;51.440;-2.534;2023-06-10T12:25:39;8.48;;;4.47;;
48987;SDS011;34799;51.440;-2.534;2023-06-10T12:28:31;9.40;;;4.35;;
48987;SDS011;34799;51.440;-2.534;2023-06-10T12:31:06;10.18;;;5.55;;
48987;SDS011;34799;51.440;-2.534;2023-06-10T12:33:34;9.70;;;4.70;;
48987;SDS011;34799;51.440;-2.534;2023-06-10T12:36:06;9.98;;;4.32;;
48987;SDS011;34799;51.440;-2.534;2023-06-10T12:38:44;9.20;;;4.43;;
48987;SDS011;34799;51.440;-2.534;2023-06-10T12:41:15;11.10;;;4.60;;
48987;SDS011;34799;51.440;-2.534;2023-06-10T12:43:44;7.78;;;4.82;;
48987;SDS011;34799;51.440;-2.534;2023-06-10T12:46:13;8.18;;;5.07;;
48987;SDS011;34799;51.440;-2.534;2023-06-10T12:48:51;11.65;;;5.05;;
48987;SDS011;34799;51.440;-2.534;2023-06-10T12:51:19;10.20;;;5.38;;
48987;SDS011;34799;51.440;-2.534;2023-06-10T12:53:47;10.40;;;5.13;;
48987;SDS011;34799;51.440;-2.534;2023-06-10T12:56:17;15.98;;;5.10;;
48987;SDS011;34799;51.440;-2.534;2023-06-10T12:58:45;10.48;;;4.82;;
48987;SDS011;34799;51.440;-2.534;2023-06-10T13:01:14;10.02;;;5.50;;
48987;SDS011;34799;51.440;-2.534;2023-06-10T13:03:42;13.23;;;5.72;;
48987;SDS011;34799;51.440;-2.534;2023-06-10T13:06:14;9.73;;;4.97;;
48987;SDS011;34799;51.440;-2.534;2023-06-10T13:08:42;9.88;;;5.47;;
48987;SDS011;34799;51.440;-2.534;2023-06-10T13:11:13;9.20;;;4.68;;
48987;SDS011;34799;51.440;-2.534;2023-06-10T13:13:45;12.70;;;5.82;;
48987;SDS011;34799;51.440;-2.534;2023-06-10T13:16:19;12.73;;;6.03;;
48987;SDS011;34799;51.440;-2.534;2023-06-10T13:18:48;11.13;;;5.05;;
48987;SDS011;34799;51.440;-2.534;2023-06-10T13:21:18;12.18;;;5.43;;
48987;SDS011;34799;51.440;-2.534;2023-06-10T13:23:49;13.20;;;5.72;;
48987;SDS011;34799;51.440;-2.534;2023-06-10T13:26:19;10.10;;;5.40;;
48987;SDS011;34799;51.440;-2.534;2023-06-10T13:28:50;11.68;;;5.60;;
48987;SDS011;34799;51.440;-2.534;2023-06-10T13:31:18;11.15;;;5.43;;
48987;SDS011;34799;51.440;-2.534;2023-06-10T13:33:47;11.50;;;5.45;;
48987;SDS011;34799;51.440;-2.534;2023-06-10T13:36:15;17.25;;;5.50;;
48987;SDS011;34799;51.440;-2.534;2023-06-10T13:38:45;9.93;;;5.40;;
48987;SDS011;34799;51.440;-2.534;2023-06-10T13:45:30;13.63;;;5.20;;
48987;SDS011;34799;51.440;-2.534;2023-06-10T13:48:19;10.25;;;5.30;;
48987;SDS011;34799;51.440;-2.534;2023-06-10T13:50:56;9.57;;;5.10;;
48987;SDS011;34799;51.440;-2.534;2023-06-10T13:53:29;10.00;;;5.40;;
48987;SDS011;34799;51.440;-2.534;2023-06-10T13:55:56;10.77;;;5.55;;
48987;SDS011;34799;51.440;-2.534;2023-06-10T14:02:31;10.90;;;5.40;;
48987;SDS011;34799;51.440;-2.534;2023-06-10T14:05:09;11.95;;;5.57;;
48987;SDS011;34799;51.440;-2.534;2023-06-10T14:07:41;12.88;;;5.25;;
48987;SDS011;34799;51.440;-2.534;2023-06-10T14:10:10;11.65;;;5.75;;
48987;SDS011;34799;51.440;-2.534;2023-06-10T14:12:40;9.25;;;5.22;;
48987;SDS011;34799;51.440;-2.534;2023-06-10T14:15:13;10.32;;;5.43;;
48987;SDS011;34799;51.440;-2.534;2023-06-10T14:17:43;8.77;;;5.35;;
48987;SDS011;34799;51.440;-2.534;2023-06-10T14:20:15;13.65;;;5.32;;
48987;SDS011;34799;51.440;-2.534;2023-06-10T14:22:43;12.10;;;6.20;;
48987;SDS011;34799;51.440;-2.534;2023-06-10T14:25:11;10.60;;;5.57;;
48987;SDS011;34799;51.440;-2.534;2023-06-10T14:27:41;12.85;;;5.47;;
48987;SDS011;34799;51.440;-2.534;2023-06-10T14:30:12;12.93;;;5.40;;
48987;SDS011;34799;51.440;-2.534;2023-06-10T14:32:41;8.18;;;4.90;;
48987;SDS011;34799;51.440;-2.534;2023-06-10T14:35:10;8.98;;;5.57;;
48987;SDS011;34799;51.440;-2.534;2023-06-10T14:37:47;11.68;;;6.10;;
48987;SDS011;34799;51.440;-2.534;2023-06-10T14:40:17;18.83;;;5.97;;
48987;SDS011;34799;51.440;-2.534;2023-06-10T14:42:47;14.20;;;6.13;;
48987;SDS011;34799;51.440;-2.534;2023-06-10T14:45:19;12.82;;;6.13;;
48987;SDS011;34799;51.440;-2.534;2023-06-10T14:47:49;13.57;;;6.32;;
48987;SDS011;34799;51.440;-2.534;2023-06-10T14:50:17;13.52;;;5.68;;
48987;SDS011;34799;51.440;-2.534;2023-06-10T14:52:47;11.75;;;5.75;;
48987;SDS011;34799;51.440;-2.534;2023-06-10T14:55:18;13.68;;;7.05;;
48987;SDS011;34799;51.440;-2.534;2023-06-10T14:57:47;13.07;;;5.88;;
48987;SDS011;34799;51.440;-2.534;2023-06-10T15:00:16;11.93;;;5.90;;
48987;SDS011;34799;51.440;-2.534;2023-06-10T15:02:52;11.25;;;5.43;;
48987;SDS011;34799;51.440;-2.534;2023-06-10T15:05:23;11.48;;;6.00;;
48987;SDS011;34799;51.440;-2.534;2023-06-10T15:07:52;11.57;;;6.88;;
48987;SDS011;34799;51.440;-2.534;2023-06-10T15:10:20;14.05;;;6.50;;
48987;SDS011;34799;51.440;-2.534;2023-06-10T15:12:50;14.23;;;6.70;;
48987;SDS011;34799;51.440;-2.534;2023-06-10T15:15:23;14.18;;;6.13;;
48987;SDS011;34799;51.440;-2.534;2023-06-10T15:17:54;14.02;;;5.95;;
48987;SDS011;34799;51.440;-2.534;2023-06-10T15:20:23;15.38;;;7.55;;
48987;SDS011;34799;51.440;-2.534;2023-06-10T15:22:57;16.02;;;6.75;;
48987;SDS011;34799;51.440;-2.534;2023-06-10T15:25:25;15.10;;;6.60;;